Pagrindinis puslapis
METAR-TAF:

METAR-TAF

Oro uostai :

Ilam, Iranas

platuma: 33-35-09N, ilguma: 046-24-20E, Aukštis: 1334 m

Dabartinis oras

Ataskaita buvo paskelbta 40 minutes, ne 08:00 UTC
Vėjas 6 kt iš Vakarų/Šiaurės Vakarų
Temperatūra 27°C
Drėgmė 23%
Slėgis 1023 hPa
Matomumas 10 km arba daugiau
nėra debesų žemiau 1500 m ir nėra kamuolinių lietaus debesų

METAR: OICI 180800Z 29006KT CAVOK 27/04 Q1023 A3022

Laikas: 12:10 (08:40 UTC)

Prognozė

Ataskaita buvo paskelbta 2 valandos ir 50 minutes, ne 05:50 UTC
Prognozė galioja nuo 18 metu 06 UTC su 19 metu 12 UTC
Vėjas 8 kt iš Vakarų
Matomumas: 8000 m
Mažai debesys ne aukštis 4000 ft
Laikinai
nuo 18 metu 09 UTC su 18 metu 15 UTC
Vėjas 16 kt iš Šiaurės Vakarų
Laikinai
nuo 19 metu 09 UTC su 19 metu 12 UTC
Vėjas 16 kt iš Šiaurės Vakarų
Mažai debesys ne aukštis 3500 ft, aukštai iškilę kamuoliniai debesys.
Išsisklaidę debesys ne aukštis 9000 ft

TAF: OICI 180550Z 1806/1912 28008KT 8000 FEW040 TEMPO 1809/1815 32016KT TEMPO 1909/1912 32016KT FEW035TCU SCT090

Orai ataskaitas ir orų prognozės (METAR, TAF).

turimą stotys yra geltonos ir raudonos taškus žemėlapyje.

Perkelti pele per norėdami pamatyti stoties vardą.

Tada spustelėkite, norėdami matyti oro stebėjimo ir prognozės.

Norėdami pakeisti žemėlapį: spustelėkite ant žalios mygtukų su juodo kryžiaus žemyn,; žalią mygtuką su brūkšneliu, jei norite nutolinti; arba žalių rodyklių gretimoms žemėlapius.


METAR-TAF: